sensor_id;sensor_type;location;lat;lon;timestamp;P1;durP1;ratioP1;P2;durP2;ratioP2
8819;SDS011;4446;50.876;4.736;2023-07-13T00:01:47;2.58;;;1.35;;
8819;SDS011;4446;50.876;4.736;2023-07-13T00:04:15;5.03;;;1.50;;
8819;SDS011;4446;50.876;4.736;2023-07-13T00:06:43;3.50;;;1.70;;
8819;SDS011;4446;50.876;4.736;2023-07-13T00:09:11;5.82;;;1.95;;
8819;SDS011;4446;50.876;4.736;2023-07-13T00:11:38;3.63;;;1.50;;
8819;SDS011;4446;50.876;4.736;2023-07-13T00:14:06;2.80;;;1.50;;
8819;SDS011;4446;50.876;4.736;2023-07-13T00:16:34;3.33;;;1.70;;
8819;SDS011;4446;50.876;4.736;2023-07-13T00:19:04;5.10;;;1.60;;
8819;SDS011;4446;50.876;4.736;2023-07-13T00:21:31;1.95;;;1.35;;
8819;SDS011;4446;50.876;4.736;2023-07-13T00:23:58;2.75;;;1.58;;
8819;SDS011;4446;50.876;4.736;2023-07-13T00:26:26;2.50;;;1.50;;
8819;SDS011;4446;50.876;4.736;2023-07-13T00:28:53;5.10;;;1.55;;
8819;SDS011;4446;50.876;4.736;2023-07-13T00:31:20;2.95;;;1.90;;
8819;SDS011;4446;50.876;4.736;2023-07-13T00:33:47;3.33;;;1.48;;
8819;SDS011;4446;50.876;4.736;2023-07-13T00:36:15;3.28;;;1.73;;
8819;SDS011;4446;50.876;4.736;2023-07-13T00:38:42;3.50;;;1.67;;
8819;SDS011;4446;50.876;4.736;2023-07-13T00:41:10;3.72;;;1.40;;
8819;SDS011;4446;50.876;4.736;2023-07-13T00:43:37;4.07;;;1.42;;
8819;SDS011;4446;50.876;4.736;2023-07-13T00:48:53;4.18;;;1.85;;
8819;SDS011;4446;50.876;4.736;2023-07-13T00:51:24;2.05;;;1.38;;
8819;SDS011;4446;50.876;4.736;2023-07-13T00:53:56;3.33;;;1.52;;
8819;SDS011;4446;50.876;4.736;2023-07-13T00:56:25;6.63;;;1.50;;
8819;SDS011;4446;50.876;4.736;2023-07-13T00:58:53;2.85;;;1.58;;
8819;SDS011;4446;50.876;4.736;2023-07-13T01:01:21;2.03;;;1.45;;
8819;SDS011;4446;50.876;4.736;2023-07-13T01:03:48;2.28;;;1.50;;
8819;SDS011;4446;50.876;4.736;2023-07-13T01:06:15;2.40;;;1.42;;
8819;SDS011;4446;50.876;4.736;2023-07-13T01:08:44;4.07;;;1.60;;
8819;SDS011;4446;50.876;4.736;2023-07-13T01:11:11;4.75;;;1.48;;
8819;SDS011;4446;50.876;4.736;2023-07-13T01:13:44;4.00;;;1.90;;
8819;SDS011;4446;50.876;4.736;2023-07-13T01:16:12;3.28;;;1.42;;
8819;SDS011;4446;50.876;4.736;2023-07-13T01:18:48;4.97;;;1.75;;
8819;SDS011;4446;50.876;4.736;2023-07-13T01:21:16;2.53;;;1.90;;
8819;SDS011;4446;50.876;4.736;2023-07-13T01:23:44;1.92;;;1.70;;
8819;SDS011;4446;50.876;4.736;2023-07-13T01:26:11;3.53;;;1.70;;
8819;SDS011;4446;50.876;4.736;2023-07-13T01:28:38;6.03;;;1.88;;
8819;SDS011;4446;50.876;4.736;2023-07-13T01:31:05;1.63;;;1.50;;
8819;SDS011;4446;50.876;4.736;2023-07-13T01:33:33;2.88;;;1.52;;
8819;SDS011;4446;50.876;4.736;2023-07-13T01:36:00;4.28;;;1.70;;
8819;SDS011;4446;50.876;4.736;2023-07-13T01:38:29;2.10;;;1.40;;
8819;SDS011;4446;50.876;4.736;2023-07-13T01:40:56;3.10;;;1.52;;
8819;SDS011;4446;50.876;4.736;2023-07-13T01:43:23;1.77;;;1.50;;
8819;SDS011;4446;50.876;4.736;2023-07-13T01:45:50;3.50;;;1.70;;
8819;SDS011;4446;50.876;4.736;2023-07-13T01:48:17;2.97;;;1.67;;
8819;SDS011;4446;50.876;4.736;2023-07-13T01:50:45;2.17;;;1.55;;
8819;SDS011;4446;50.876;4.736;2023-07-13T01:53:14;6.05;;;1.52;;
8819;SDS011;4446;50.876;4.736;2023-07-13T01:55:42;2.17;;;1.80;;
8819;SDS011;4446;50.876;4.736;2023-07-13T01:58:09;3.63;;;1.70;;
8819;SDS011;4446;50.876;4.736;2023-07-13T02:00:36;3.28;;;1.60;;
8819;SDS011;4446;50.876;4.736;2023-07-13T02:03:03;3.05;;;1.88;;
8819;SDS011;4446;50.876;4.736;2023-07-13T02:05:30;3.70;;;1.45;;
8819;SDS011;4446;50.876;4.736;2023-07-13T02:07:57;4.32;;;1.90;;
8819;SDS011;4446;50.876;4.736;2023-07-13T02:10:24;3.47;;;1.73;;
8819;SDS011;4446;50.876;4.736;2023-07-13T02:12:53;4.30;;;1.88;;
8819;SDS011;4446;50.876;4.736;2023-07-13T02:15:20;3.53;;;1.90;;
8819;SDS011;4446;50.876;4.736;2023-07-13T02:17:47;3.05;;;1.80;;
8819;SDS011;4446;50.876;4.736;2023-07-13T02:20:14;3.85;;;1.90;;
8819;SDS011;4446;50.876;4.736;2023-07-13T02:22:41;1.73;;;1.50;;
8819;SDS011;4446;50.876;4.736;2023-07-13T02:25:08;2.25;;;1.70;;
8819;SDS011;4446;50.876;4.736;2023-07-13T02:27:35;2.55;;;1.75;;
8819;SDS011;4446;50.876;4.736;2023-07-13T02:30:04;4.38;;;1.88;;
8819;SDS011;4446;50.876;4.736;2023-07-13T02:32:31;4.50;;;1.98;;
8819;SDS011;4446;50.876;4.736;2023-07-13T02:34:58;5.05;;;2.13;;
8819;SDS011;4446;50.876;4.736;2023-07-13T02:37:25;3.33;;;1.75;;
8819;SDS011;4446;50.876;4.736;2023-07-13T02:39:52;4.47;;;1.67;;
8819;SDS011;4446;50.876;4.736;2023-07-13T02:42:19;3.92;;;1.92;;
8819;SDS011;4446;50.876;4.736;2023-07-13T02:44:46;3.22;;;1.85;;
8819;SDS011;4446;50.876;4.736;2023-07-13T02:47:16;3.70;;;1.90;;
8819;SDS011;4446;50.876;4.736;2023-07-13T02:49:43;2.58;;;2.00;;
8819;SDS011;4446;50.876;4.736;2023-07-13T02:52:10;5.63;;;1.90;;
8819;SDS011;4446;50.876;4.736;2023-07-13T02:54:37;5.53;;;1.95;;
8819;SDS011;4446;50.876;4.736;2023-07-13T02:57:04;3.25;;;1.88;;
8819;SDS011;4446;50.876;4.736;2023-07-13T02:59:31;3.08;;;1.88;;
8819;SDS011;4446;50.876;4.736;2023-07-13T03:01:58;4.30;;;1.85;;
8819;SDS011;4446;50.876;4.736;2023-07-13T03:04:27;4.88;;;1.98;;
8819;SDS011;4446;50.876;4.736;2023-07-13T03:06:54;4.20;;;1.95;;
8819;SDS011;4446;50.876;4.736;2023-07-13T03:09:23;4.07;;;1.73;;
8819;SDS011;4446;50.876;4.736;2023-07-13T03:11:51;3.08;;;1.70;;
8819;SDS011;4446;50.876;4.736;2023-07-13T03:14:19;5.40;;;1.80;;
8819;SDS011;4446;50.876;4.736;2023-07-13T03:16:47;5.35;;;1.85;;
8819;SDS011;4446;50.876;4.736;2023-07-13T03:19:13;4.40;;;1.90;;
8819;SDS011;4446;50.876;4.736;2023-07-13T03:21:42;7.35;;;2.33;;
8819;SDS011;4446;50.876;4.736;2023-07-13T03:24:09;2.83;;;2.00;;
8819;SDS011;4446;50.876;4.736;2023-07-13T03:26:36;3.97;;;1.70;;
8819;SDS011;4446;50.876;4.736;2023-07-13T03:29:04;4.40;;;2.00;;
8819;SDS011;4446;50.876;4.736;2023-07-13T03:31:32;3.85;;;1.90;;
8819;SDS011;4446;50.876;4.736;2023-07-13T03:34:01;4.32;;;1.77;;
8819;SDS011;4446;50.876;4.736;2023-07-13T03:36:30;5.70;;;2.00;;
8819;SDS011;4446;50.876;4.736;2023-07-13T03:39:01;4.32;;;2.00;;
8819;SDS011;4446;50.876;4.736;2023-07-13T03:41:29;4.43;;;2.55;;
8819;SDS011;4446;50.876;4.736;2023-07-13T03:43:56;5.32;;;2.10;;
8819;SDS011;4446;50.876;4.736;2023-07-13T03:46:23;4.38;;;2.20;;
8819;SDS011;4446;50.876;4.736;2023-07-13T03:48:51;4.22;;;1.95;;
8819;SDS011;4446;50.876;4.736;2023-07-13T03:51:18;3.45;;;2.20;;
8819;SDS011;4446;50.876;4.736;2023-07-13T03:53:46;3.90;;;1.95;;
8819;SDS011;4446;50.876;4.736;2023-07-13T03:56:15;4.93;;;2.40;;
8819;SDS011;4446;50.876;4.736;2023-07-13T03:58:44;3.08;;;1.98;;
8819;SDS011;4446;50.876;4.736;2023-07-13T04:01:12;4.60;;;2.00;;
8819;SDS011;4446;50.876;4.736;2023-07-13T04:03:39;5.28;;;2.05;;
8819;SDS011;4446;50.876;4.736;2023-07-13T04:06:07;4.50;;;2.08;;
8819;SDS011;4446;50.876;4.736;2023-07-13T04:08:46;3.75;;;1.98;;
8819;SDS011;4446;50.876;4.736;2023-07-13T04:11:17;5.80;;;2.25;;
8819;SDS011;4446;50.876;4.736;2023-07-13T04:13:44;6.05;;;1.98;;
8819;SDS011;4446;50.876;4.736;2023-07-13T04:16:11;3.92;;;1.95;;
8819;SDS011;4446;50.876;4.736;2023-07-13T04:18:38;5.95;;;2.00;;
8819;SDS011;4446;50.876;4.736;2023-07-13T04:21:06;3.63;;;1.90;;
8819;SDS011;4446;50.876;4.736;2023-07-13T04:23:33;2.95;;;2.10;;
8819;SDS011;4446;50.876;4.736;2023-07-13T04:26:00;5.18;;;2.67;;
8819;SDS011;4446;50.876;4.736;2023-07-13T04:28:29;3.40;;;2.00;;
8819;SDS011;4446;50.876;4.736;2023-07-13T04:30:56;5.32;;;2.20;;
8819;SDS011;4446;50.876;4.736;2023-07-13T04:33:23;4.30;;;1.70;;
8819;SDS011;4446;50.876;4.736;2023-07-13T04:35:50;10.05;;;3.40;;
8819;SDS011;4446;50.876;4.736;2023-07-13T04:38:21;3.60;;;1.77;;
8819;SDS011;4446;50.876;4.736;2023-07-13T04:40:50;4.13;;;1.90;;
8819;SDS011;4446;50.876;4.736;2023-07-13T04:43:17;8.50;;;2.22;;
8819;SDS011;4446;50.876;4.736;2023-07-13T04:45:46;4.30;;;1.85;;
8819;SDS011;4446;50.876;4.736;2023-07-13T04:48:13;3.03;;;1.63;;
8819;SDS011;4446;50.876;4.736;2023-07-13T04:50:40;8.77;;;2.20;;
8819;SDS011;4446;50.876;4.736;2023-07-13T04:53:08;4.15;;;2.03;;
8819;SDS011;4446;50.876;4.736;2023-07-13T04:55:35;5.13;;;1.85;;
8819;SDS011;4446;50.876;4.736;2023-07-13T04:58:02;3.15;;;1.90;;
8819;SDS011;4446;50.876;4.736;2023-07-13T05:00:30;2.92;;;2.10;;
8819;SDS011;4446;50.876;4.736;2023-07-13T05:02:58;5.13;;;2.05;;
8819;SDS011;4446;50.876;4.736;2023-07-13T05:05:26;5.97;;;1.98;;
8819;SDS011;4446;50.876;4.736;2023-07-13T05:07:53;2.42;;;2.10;;
8819;SDS011;4446;50.876;4.736;2023-07-13T05:10:20;3.33;;;1.98;;
8819;SDS011;4446;50.876;4.736;2023-07-13T05:12:48;6.57;;;2.20;;
8819;SDS011;4446;50.876;4.736;2023-07-13T05:15:15;5.05;;;1.73;;
8819;SDS011;4446;50.876;4.736;2023-07-13T05:17:46;6.40;;;2.00;;
8819;SDS011;4446;50.876;4.736;2023-07-13T05:20:14;6.93;;;1.98;;
8819;SDS011;4446;50.876;4.736;2023-07-13T05:22:42;3.97;;;2.15;;
8819;SDS011;4446;50.876;4.736;2023-07-13T05:25:12;4.45;;;2.35;;
8819;SDS011;4446;50.876;4.736;2023-07-13T05:27:39;5.18;;;2.17;;
8819;SDS011;4446;50.876;4.736;2023-07-13T05:30:06;3.25;;;1.90;;
8819;SDS011;4446;50.876;4.736;2023-07-13T05:32:36;4.35;;;2.13;;
8819;SDS011;4446;50.876;4.736;2023-07-13T05:35:03;5.32;;;2.20;;
8819;SDS011;4446;50.876;4.736;2023-07-13T05:37:31;6.07;;;2.45;;
8819;SDS011;4446;50.876;4.736;2023-07-13T05:39:58;4.93;;;3.13;;
8819;SDS011;4446;50.876;4.736;2023-07-13T05:42:25;4.13;;;1.75;;
8819;SDS011;4446;50.876;4.736;2023-07-13T05:44:52;5.10;;;1.80;;
8819;SDS011;4446;50.876;4.736;2023-07-13T05:47:19;7.43;;;2.40;;
8819;SDS011;4446;50.876;4.736;2023-07-13T05:49:46;6.70;;;2.35;;
8819;SDS011;4446;50.876;4.736;2023-07-13T05:52:13;4.05;;;2.05;;
8819;SDS011;4446;50.876;4.736;2023-07-13T05:54:42;5.78;;;2.00;;
8819;SDS011;4446;50.876;4.736;2023-07-13T05:57:09;5.80;;;2.95;;
8819;SDS011;4446;50.876;4.736;2023-07-13T05:59:39;8.48;;;2.13;;
8819;SDS011;4446;50.876;4.736;2023-07-13T06:02:07;4.75;;;2.05;;
8819;SDS011;4446;50.876;4.736;2023-07-13T06:04:36;7.03;;;2.00;;
8819;SDS011;4446;50.876;4.736;2023-07-13T06:07:03;6.13;;;2.05;;
8819;SDS011;4446;50.876;4.736;2023-07-13T06:09:31;7.80;;;2.20;;
8819;SDS011;4446;50.876;4.736;2023-07-13T06:12:00;7.80;;;1.90;;
8819;SDS011;4446;50.876;4.736;2023-07-13T06:14:27;4.85;;;2.15;;
8819;SDS011;4446;50.876;4.736;2023-07-13T06:16:54;4.32;;;2.10;;
8819;SDS011;4446;50.876;4.736;2023-07-13T06:19:21;3.60;;;2.10;;
8819;SDS011;4446;50.876;4.736;2023-07-13T06:21:48;5.82;;;2.17;;
8819;SDS011;4446;50.876;4.736;2023-07-13T06:24:16;4.93;;;2.08;;
8819;SDS011;4446;50.876;4.736;2023-07-13T06:26:42;6.13;;;2.45;;
8819;SDS011;4446;50.876;4.736;2023-07-13T06:29:11;6.15;;;2.25;;
8819;SDS011;4446;50.876;4.736;2023-07-13T06:31:38;7.13;;;2.47;;
8819;SDS011;4446;50.876;4.736;2023-07-13T06:34:05;5.57;;;2.50;;
8819;SDS011;4446;50.876;4.736;2023-07-13T06:36:32;5.38;;;2.45;;
8819;SDS011;4446;50.876;4.736;2023-07-13T06:38:58;4.15;;;2.20;;
8819;SDS011;4446;50.876;4.736;2023-07-13T06:41:25;4.95;;;2.22;;
8819;SDS011;4446;50.876;4.736;2023-07-13T06:43:51;5.93;;;2.30;;
8819;SDS011;4446;50.876;4.736;2023-07-13T06:46:21;4.38;;;1.92;;
8819;SDS011;4446;50.876;4.736;2023-07-13T06:48:49;5.93;;;1.98;;
8819;SDS011;4446;50.876;4.736;2023-07-13T06:51:16;5.68;;;2.40;;
8819;SDS011;4446;50.876;4.736;2023-07-13T06:53:43;5.05;;;2.10;;
8819;SDS011;4446;50.876;4.736;2023-07-13T06:56:10;7.03;;;2.30;;
8819;SDS011;4446;50.876;4.736;2023-07-13T06:58:37;6.75;;;2.70;;
8819;SDS011;4446;50.876;4.736;2023-07-13T07:01:05;6.47;;;2.17;;
8819;SDS011;4446;50.876;4.736;2023-07-13T07:03:33;8.80;;;2.42;;
8819;SDS011;4446;50.876;4.736;2023-07-13T07:06:01;6.55;;;2.58;;
8819;SDS011;4446;50.876;4.736;2023-07-13T07:08:28;3.97;;;2.33;;
8819;SDS011;4446;50.876;4.736;2023-07-13T07:10:55;5.95;;;2.45;;
8819;SDS011;4446;50.876;4.736;2023-07-13T07:13:22;8.85;;;2.40;;
8819;SDS011;4446;50.876;4.736;2023-07-13T07:15:49;3.30;;;2.22;;
8819;SDS011;4446;50.876;4.736;2023-07-13T07:18:17;6.35;;;3.05;;
8819;SDS011;4446;50.876;4.736;2023-07-13T07:20:45;6.60;;;2.30;;
8819;SDS011;4446;50.876;4.736;2023-07-13T07:23:12;7.22;;;3.17;;
8819;SDS011;4446;50.876;4.736;2023-07-13T07:25:39;4.95;;;2.60;;
8819;SDS011;4446;50.876;4.736;2023-07-13T07:28:07;6.22;;;2.25;;
8819;SDS011;4446;50.876;4.736;2023-07-13T07:30:35;4.35;;;2.20;;
8819;SDS011;4446;50.876;4.736;2023-07-13T07:33:03;3.15;;;2.00;;
8819;SDS011;4446;50.876;4.736;2023-07-13T07:35:30;6.07;;;2.20;;
8819;SDS011;4446;50.876;4.736;2023-07-13T07:37:58;6.63;;;2.45;;
8819;SDS011;4446;50.876;4.736;2023-07-13T07:40:25;6.68;;;2.25;;
8819;SDS011;4446;50.876;4.736;2023-07-13T07:42:52;5.47;;;2.85;;
8819;SDS011;4446;50.876;4.736;2023-07-13T07:45:20;4.32;;;2.40;;
8819;SDS011;4446;50.876;4.736;2023-07-13T07:47:48;5.97;;;2.10;;
8819;SDS011;4446;50.876;4.736;2023-07-13T07:50:15;7.25;;;2.45;;
8819;SDS011;4446;50.876;4.736;2023-07-13T07:52:44;4.20;;;2.10;;
8819;SDS011;4446;50.876;4.736;2023-07-13T07:55:13;6.22;;;2.70;;
8819;SDS011;4446;50.876;4.736;2023-07-13T07:57:40;6.45;;;2.50;;
8819;SDS011;4446;50.876;4.736;2023-07-13T08:00:07;3.38;;;2.15;;
8819;SDS011;4446;50.876;4.736;2023-07-13T08:02:35;5.32;;;2.13;;
8819;SDS011;4446;50.876;4.736;2023-07-13T08:05:02;4.50;;;2.03;;
8819;SDS011;4446;50.876;4.736;2023-07-13T08:07:29;10.55;;;2.97;;
8819;SDS011;4446;50.876;4.736;2023-07-13T08:09:57;4.72;;;2.17;;
8819;SDS011;4446;50.876;4.736;2023-07-13T08:12:25;3.75;;;1.90;;
8819;SDS011;4446;50.876;4.736;2023-07-13T08:14:52;4.40;;;2.20;;
8819;SDS011;4446;50.876;4.736;2023-07-13T08:17:22;5.32;;;2.30;;
8819;SDS011;4446;50.876;4.736;2023-07-13T08:19:50;4.53;;;2.28;;
8819;SDS011;4446;50.876;4.736;2023-07-13T08:22:17;7.85;;;2.40;;
8819;SDS011;4446;50.876;4.736;2023-07-13T08:24:44;4.47;;;2.67;;
8819;SDS011;4446;50.876;4.736;2023-07-13T08:27:12;6.15;;;2.33;;
8819;SDS011;4446;50.876;4.736;2023-07-13T08:29:41;6.13;;;2.08;;
8819;SDS011;4446;50.876;4.736;2023-07-13T08:32:08;2.83;;;2.10;;
8819;SDS011;4446;50.876;4.736;2023-07-13T08:34:36;4.53;;;2.60;;
8819;SDS011;4446;50.876;4.736;2023-07-13T08:37:03;4.68;;;2.28;;
8819;SDS011;4446;50.876;4.736;2023-07-13T08:39:30;6.07;;;2.17;;
8819;SDS011;4446;50.876;4.736;2023-07-13T08:41:58;4.45;;;2.45;;
8819;SDS011;4446;50.876;4.736;2023-07-13T08:44:30;4.10;;;1.95;;
8819;SDS011;4446;50.876;4.736;2023-07-13T08:47:07;3.45;;;2.10;;
8819;SDS011;4446;50.876;4.736;2023-07-13T08:49:37;6.05;;;2.25;;
8819;SDS011;4446;50.876;4.736;2023-07-13T08:52:05;3.55;;;2.10;;
8819;SDS011;4446;50.876;4.736;2023-07-13T08:54:40;3.38;;;2.08;;
8819;SDS011;4446;50.876;4.736;2023-07-13T08:57:12;4.68;;;2.30;;
8819;SDS011;4446;50.876;4.736;2023-07-13T08:59:40;5.65;;;2.38;;
8819;SDS011;4446;50.876;4.736;2023-07-13T09:02:23;4.05;;;1.98;;
8819;SDS011;4446;50.876;4.736;2023-07-13T09:04:54;6.45;;;2.38;;
8819;SDS011;4446;50.876;4.736;2023-07-13T09:07:26;4.88;;;2.50;;
8819;SDS011;4446;50.876;4.736;2023-07-13T09:10:07;3.72;;;2.35;;
8819;SDS011;4446;50.876;4.736;2023-07-13T09:15:34;3.40;;;2.22;;
8819;SDS011;4446;50.876;4.736;2023-07-13T09:18:08;3.85;;;1.70;;
8819;SDS011;4446;50.876;4.736;2023-07-13T09:20:39;2.63;;;2.10;;
8819;SDS011;4446;50.876;4.736;2023-07-13T09:23:13;2.25;;;1.70;;
8819;SDS011;4446;50.876;4.736;2023-07-13T09:25:43;3.03;;;1.63;;
8819;SDS011;4446;50.876;4.736;2023-07-13T09:28:14;4.53;;;2.00;;
8819;SDS011;4446;50.876;4.736;2023-07-13T09:30:45;2.10;;;1.52;;
8819;SDS011;4446;50.876;4.736;2023-07-13T09:33:19;3.75;;;1.80;;
8819;SDS011;4446;50.876;4.736;2023-07-13T09:35:46;3.92;;;1.75;;
8819;SDS011;4446;50.876;4.736;2023-07-13T09:38:15;4.65;;;2.00;;
8819;SDS011;4446;50.876;4.736;2023-07-13T09:40:49;3.70;;;1.90;;
8819;SDS011;4446;50.876;4.736;2023-07-13T09:43:25;5.15;;;2.20;;
8819;SDS011;4446;50.876;4.736;2023-07-13T09:45:54;2.80;;;2.00;;
8819;SDS011;4446;50.876;4.736;2023-07-13T09:48:23;3.38;;;1.80;;
8819;SDS011;4446;50.876;4.736;2023-07-13T09:50:54;2.65;;;1.80;;
8819;SDS011;4446;50.876;4.736;2023-07-13T09:53:22;1.90;;;1.60;;
8819;SDS011;4446;50.876;4.736;2023-07-13T09:55:50;2.33;;;1.80;;
8819;SDS011;4446;50.876;4.736;2023-07-13T09:58:18;3.80;;;1.50;;
8819;SDS011;4446;50.876;4.736;2023-07-13T10:00:53;2.40;;;1.55;;
8819;SDS011;4446;50.876;4.736;2023-07-13T10:03:25;2.53;;;1.60;;
8819;SDS011;4446;50.876;4.736;2023-07-13T10:05:53;3.47;;;1.77;;
8819;SDS011;4446;50.876;4.736;2023-07-13T10:08:21;2.65;;;1.70;;
8819;SDS011;4446;50.876;4.736;2023-07-13T10:10:54;3.42;;;1.70;;
8819;SDS011;4446;50.876;4.736;2023-07-13T10:13:32;4.97;;;2.20;;
8819;SDS011;4446;50.876;4.736;2023-07-13T10:16:02;2.10;;;1.70;;
8819;SDS011;4446;50.876;4.736;2023-07-13T10:18:34;2.85;;;1.92;;
8819;SDS011;4446;50.876;4.736;2023-07-13T10:21:13;2.85;;;1.67;;
8819;SDS011;4446;50.876;4.736;2023-07-13T10:23:43;3.25;;;1.80;;
8819;SDS011;4446;50.876;4.736;2023-07-13T10:26:15;4.70;;;1.98;;
8819;SDS011;4446;50.876;4.736;2023-07-13T10:28:46;4.25;;;1.90;;
8819;SDS011;4446;50.876;4.736;2023-07-13T10:31:18;3.80;;;1.50;;
8819;SDS011;4446;50.876;4.736;2023-07-13T10:33:48;3.58;;;1.50;;
8819;SDS011;4446;50.876;4.736;2023-07-13T10:36:17;3.53;;;2.22;;
8819;SDS011;4446;50.876;4.736;2023-07-13T10:38:52;2.85;;;1.50;;
8819;SDS011;4446;50.876;4.736;2023-07-13T10:41:21;3.40;;;1.60;;
8819;SDS011;4446;50.876;4.736;2023-07-13T10:43:52;3.92;;;1.98;;
8819;SDS011;4446;50.876;4.736;2023-07-13T10:46:22;2.75;;;1.85;;
8819;SDS011;4446;50.876;4.736;2023-07-13T10:48:54;2.10;;;1.65;;
8819;SDS011;4446;50.876;4.736;2023-07-13T10:51:24;3.70;;;1.90;;
8819;SDS011;4446;50.876;4.736;2023-07-13T10:54:11;2.00;;;1.52;;
8819;SDS011;4446;50.876;4.736;2023-07-13T10:56:43;3.28;;;1.60;;
8819;SDS011;4446;50.876;4.736;2023-07-13T10:59:12;5.43;;;1.73;;
8819;SDS011;4446;50.876;4.736;2023-07-13T11:01:46;3.13;;;1.75;;
8819;SDS011;4446;50.876;4.736;2023-07-13T11:04:20;4.38;;;2.25;;
8819;SDS011;4446;50.876;4.736;2023-07-13T11:06:50;4.05;;;1.73;;
8819;SDS011;4446;50.876;4.736;2023-07-13T11:12:26;2.80;;;1.63;;
8819;SDS011;4446;50.876;4.736;2023-07-13T11:15:12;3.38;;;2.22;;
8819;SDS011;4446;50.876;4.736;2023-07-13T11:17:49;2.45;;;1.60;;
8819;SDS011;4446;50.876;4.736;2023-07-13T11:20:41;2.35;;;1.48;;
8819;SDS011;4446;50.876;4.736;2023-07-13T11:23:15;2.00;;;1.40;;
8819;SDS011;4446;50.876;4.736;2023-07-13T11:25:53;2.75;;;1.60;;
8819;SDS011;4446;50.876;4.736;2023-07-13T11:28:24;2.90;;;1.75;;
8819;SDS011;4446;50.876;4.736;2023-07-13T11:31:00;2.13;;;1.70;;
8819;SDS011;4446;50.876;4.736;2023-07-13T11:33:53;2.42;;;1.52;;
8819;SDS011;4446;50.876;4.736;2023-07-13T11:36:29;2.75;;;1.30;;
8819;SDS011;4446;50.876;4.736;2023-07-13T11:38:59;2.50;;;1.40;;
8819;SDS011;4446;50.876;4.736;2023-07-13T11:41:30;3.65;;;1.50;;
8819;SDS011;4446;50.876;4.736;2023-07-13T11:44:09;2.72;;;1.58;;
8819;SDS011;4446;50.876;4.736;2023-07-13T11:46:43;2.75;;;1.52;;
8819;SDS011;4446;50.876;4.736;2023-07-13T11:49:13;2.25;;;1.40;;
8819;SDS011;4446;50.876;4.736;2023-07-13T11:51:44;2.72;;;1.52;;
8819;SDS011;4446;50.876;4.736;2023-07-13T11:54:15;3.88;;;1.60;;
8819;SDS011;4446;50.876;4.736;2023-07-13T11:56:49;2.90;;;1.55;;
8819;SDS011;4446;50.876;4.736;2023-07-13T11:59:17;1.50;;;1.40;;
8819;SDS011;4446;50.876;4.736;2023-07-13T12:01:48;4.45;;;1.60;;
8819;SDS011;4446;50.876;4.736;2023-07-13T12:04:21;5.07;;;1.48;;
8819;SDS011;4446;50.876;4.736;2023-07-13T12:06:56;1.90;;;1.60;;
8819;SDS011;4446;50.876;4.736;2023-07-13T12:09:26;2.45;;;1.52;;
8819;SDS011;4446;50.876;4.736;2023-07-13T12:11:55;2.40;;;1.58;;
8819;SDS011;4446;50.876;4.736;2023-07-13T12:14:25;3.58;;;1.65;;
8819;SDS011;4446;50.876;4.736;2023-07-13T12:16:52;2.42;;;1.45;;
8819;SDS011;4446;50.876;4.736;2023-07-13T12:19:20;2.67;;;1.60;;
8819;SDS011;4446;50.876;4.736;2023-07-13T12:21:49;1.65;;;1.55;;
8819;SDS011;4446;50.876;4.736;2023-07-13T12:24:20;3.72;;;1.70;;
8819;SDS011;4446;50.876;4.736;2023-07-13T12:26:52;3.05;;;1.67;;
8819;SDS011;4446;50.876;4.736;2023-07-13T12:29:20;3.85;;;1.60;;
8819;SDS011;4446;50.876;4.736;2023-07-13T12:31:49;1.40;;;1.30;;
8819;SDS011;4446;50.876;4.736;2023-07-13T12:34:18;3.55;;;1.48;;
8819;SDS011;4446;50.876;4.736;2023-07-13T12:36:46;2.70;;;1.50;;
8819;SDS011;4446;50.876;4.736;2023-07-13T12:39:17;3.53;;;1.60;;
8819;SDS011;4446;50.876;4.736;2023-07-13T12:41:46;2.47;;;1.48;;
8819;SDS011;4446;50.876;4.736;2023-07-13T12:44:15;3.40;;;1.48;;
8819;SDS011;4446;50.876;4.736;2023-07-13T12:46:54;1.80;;;1.40;;
8819;SDS011;4446;50.876;4.736;2023-07-13T12:49:25;1.83;;;1.50;;
8819;SDS011;4446;50.876;4.736;2023-07-13T12:51:58;1.77;;;1.67;;
8819;SDS011;4446;50.876;4.736;2023-07-13T12:54:28;1.90;;;1.70;;
8819;SDS011;4446;50.876;4.736;2023-07-13T12:56:57;2.90;;;1.80;;
8819;SDS011;4446;50.876;4.736;2023-07-13T12:59:29;2.00;;;1.80;;
8819;SDS011;4446;50.876;4.736;2023-07-13T13:02:01;1.70;;;1.60;;
8819;SDS011;4446;50.876;4.736;2023-07-13T13:04:30;2.53;;;1.63;;
8819;SDS011;4446;50.876;4.736;2023-07-13T13:07:00;3.13;;;1.55;;
8819;SDS011;4446;50.876;4.736;2023-07-13T13:09:30;1.80;;;1.67;;
8819;SDS011;4446;50.876;4.736;2023-07-13T13:11:57;1.98;;;1.30;;
8819;SDS011;4446;50.876;4.736;2023-07-13T13:14:24;1.50;;;1.40;;
8819;SDS011;4446;50.876;4.736;2023-07-13T13:16:52;1.35;;;1.25;;
8819;SDS011;4446;50.876;4.736;2023-07-13T13:19:20;2.00;;;1.30;;
8819;SDS011;4446;50.876;4.736;2023-07-13T13:21:50;2.03;;;1.55;;
8819;SDS011;4446;50.876;4.736;2023-07-13T13:24:21;1.30;;;1.20;;
8819;SDS011;4446;50.876;4.736;2023-07-13T13:26:51;2.03;;;1.38;;
8819;SDS011;4446;50.876;4.736;2023-07-13T13:29:22;3.67;;;1.70;;
8819;SDS011;4446;50.876;4.736;2023-07-13T13:31:50;2.17;;;1.48;;
8819;SDS011;4446;50.876;4.736;2023-07-13T13:34:17;2.80;;;1.52;;
8819;SDS011;4446;50.876;4.736;2023-07-13T13:36:45;3.75;;;1.60;;
8819;SDS011;4446;50.876;4.736;2023-07-13T13:39:18;4.70;;;1.60;;
8819;SDS011;4446;50.876;4.736;2023-07-13T13:41:48;1.88;;;1.48;;
8819;SDS011;4446;50.876;4.736;2023-07-13T13:44:17;2.10;;;1.85;;
8819;SDS011;4446;50.876;4.736;2023-07-13T13:46:44;4.85;;;1.70;;
8819;SDS011;4446;50.876;4.736;2023-07-13T13:49:14;3.78;;;1.73;;
8819;SDS011;4446;50.876;4.736;2023-07-13T13:51:43;2.78;;;1.92;;
8819;SDS011;4446;50.876;4.736;2023-07-13T13:54:12;1.73;;;1.42;;
8819;SDS011;4446;50.876;4.736;2023-07-13T13:56:41;1.67;;;1.38;;
8819;SDS011;4446;50.876;4.736;2023-07-13T13:59:09;1.55;;;1.30;;
8819;SDS011;4446;50.876;4.736;2023-07-13T14:01:37;2.83;;;1.55;;
8819;SDS011;4446;50.876;4.736;2023-07-13T14:04:08;1.85;;;1.42;;
8819;SDS011;4446;50.876;4.736;2023-07-13T14:06:39;1.83;;;1.40;;
8819;SDS011;4446;50.876;4.736;2023-07-13T14:09:08;2.30;;;1.60;;
8819;SDS011;4446;50.876;4.736;2023-07-13T14:11:36;1.90;;;1.50;;
8819;SDS011;4446;50.876;4.736;2023-07-13T14:14:04;2.72;;;1.50;;
8819;SDS011;4446;50.876;4.736;2023-07-13T14:16:32;1.40;;;1.27;;
8819;SDS011;4446;50.876;4.736;2023-07-13T14:19:01;1.50;;;1.40;;
8819;SDS011;4446;50.876;4.736;2023-07-13T14:21:28;3.53;;;2.00;;
8819;SDS011;4446;50.876;4.736;2023-07-13T14:23:56;1.50;;;1.40;;
8819;SDS011;4446;50.876;4.736;2023-07-13T14:26:25;2.25;;;1.38;;
8819;SDS011;4446;50.876;4.736;2023-07-13T14:28:53;2.90;;;1.60;;
8819;SDS011;4446;50.876;4.736;2023-07-13T14:31:22;2.72;;;1.83;;
8819;SDS011;4446;50.876;4.736;2023-07-13T14:33:54;1.55;;;1.45;;
8819;SDS011;4446;50.876;4.736;2023-07-13T14:36:23;2.10;;;1.60;;
8819;SDS011;4446;50.876;4.736;2023-07-13T14:38:54;3.88;;;1.98;;
8819;SDS011;4446;50.876;4.736;2023-07-13T14:41:21;2.03;;;1.50;;
8819;SDS011;4446;50.876;4.736;2023-07-13T14:43:48;2.10;;;1.67;;
8819;SDS011;4446;50.876;4.736;2023-07-13T14:46:23;2.38;;;1.75;;
8819;SDS011;4446;50.876;4.736;2023-07-13T14:48:54;2.30;;;1.52;;
8819;SDS011;4446;50.876;4.736;2023-07-13T14:51:29;3.55;;;1.83;;
8819;SDS011;4446;50.876;4.736;2023-07-13T14:53:58;1.83;;;1.73;;
8819;SDS011;4446;50.876;4.736;2023-07-13T14:56:28;1.95;;;1.40;;
8819;SDS011;4446;50.876;4.736;2023-07-13T14:58:55;2.75;;;1.80;;
8819;SDS011;4446;50.876;4.736;2023-07-13T15:01:22;2.63;;;1.77;;
8819;SDS011;4446;50.876;4.736;2023-07-13T15:03:51;2.80;;;1.77;;
8819;SDS011;4446;50.876;4.736;2023-07-13T15:06:18;2.20;;;1.35;;
8819;SDS011;4446;50.876;4.736;2023-07-13T15:08:47;1.50;;;1.40;;
8819;SDS011;4446;50.876;4.736;2023-07-13T15:11:15;2.75;;;1.50;;
8819;SDS011;4446;50.876;4.736;2023-07-13T15:13:43;3.35;;;1.80;;
8819;SDS011;4446;50.876;4.736;2023-07-13T15:16:13;1.63;;;1.40;;
8819;SDS011;4446;50.876;4.736;2023-07-13T15:18:43;2.63;;;1.45;;
8819;SDS011;4446;50.876;4.736;2023-07-13T15:21:12;2.55;;;1.65;;
8819;SDS011;4446;50.876;4.736;2023-07-13T15:23:45;4.47;;;1.45;;
8819;SDS011;4446;50.876;4.736;2023-07-13T15:26:14;2.03;;;1.40;;
8819;SDS011;4446;50.876;4.736;2023-07-13T15:28:42;1.75;;;1.33;;
8819;SDS011;4446;50.876;4.736;2023-07-13T15:31:17;1.80;;;1.38;;
8819;SDS011;4446;50.876;4.736;2023-07-13T15:33:47;2.22;;;1.60;;
8819;SDS011;4446;50.876;4.736;2023-07-13T15:36:16;1.80;;;1.48;;